createdAt,value
2022-09-20T00:00:44.014Z,2.70
2022-09-20T00:01:43.994Z,2.50
2022-09-20T00:02:43.932Z,2.40
2022-09-20T00:03:43.943Z,2.40
2022-09-20T00:04:43.961Z,2.60
2022-09-20T00:05:43.902Z,2.50
2022-09-20T00:06:43.902Z,2.40
2022-09-20T00:07:43.874Z,2.30
2022-09-20T00:08:43.889Z,2.60
2022-09-20T00:09:44.186Z,2.50
2022-09-20T00:10:43.843Z,2.70
2022-09-20T00:11:43.838Z,2.50
2022-09-20T00:12:43.837Z,2.50
2022-09-20T00:13:43.813Z,2.80
2022-09-20T00:14:43.794Z,2.80
2022-09-20T00:15:44.093Z,2.50
2022-09-20T00:16:43.809Z,2.50
2022-09-20T00:17:43.763Z,2.60
2022-09-20T00:18:43.753Z,2.70
2022-09-20T00:19:43.735Z,2.80
2022-09-20T00:20:43.739Z,2.60
2022-09-20T00:21:43.783Z,2.80
2022-09-20T00:22:43.718Z,2.70
2022-09-20T00:23:43.707Z,2.60
2022-09-20T00:24:48.761Z,2.60
2022-09-20T00:25:44.657Z,2.50
2022-09-20T00:26:43.657Z,2.70
2022-09-20T00:27:43.837Z,2.80
2022-09-20T00:28:43.627Z,2.70
2022-09-20T00:29:43.631Z,2.80
2022-09-20T00:30:43.625Z,2.70
2022-09-20T00:31:43.913Z,2.70
2022-09-20T00:32:43.601Z,2.80
2022-09-20T00:33:43.569Z,2.90
2022-09-20T00:34:43.559Z,2.90
2022-09-20T00:35:43.548Z,3.00
2022-09-20T00:36:43.840Z,2.70
2022-09-20T00:37:43.540Z,2.50
2022-09-20T00:38:43.533Z,2.80
2022-09-20T00:39:43.523Z,2.70
2022-09-20T00:40:43.533Z,3.20
2022-09-20T00:41:43.501Z,2.70
2022-09-20T00:42:43.761Z,2.60
2022-09-20T00:43:43.775Z,2.60
2022-09-20T00:44:43.448Z,2.70
2022-09-20T00:45:43.479Z,2.80
2022-09-20T00:46:43.420Z,2.60
2022-09-20T00:47:43.403Z,2.80
2022-09-20T00:48:43.406Z,2.60
2022-09-20T00:49:43.601Z,2.80
2022-09-20T00:50:43.394Z,2.80
2022-09-20T00:51:43.361Z,3.00
2022-09-20T00:52:43.366Z,2.60
2022-09-20T00:53:43.369Z,2.90
2022-09-20T00:54:43.324Z,2.90
2022-09-20T00:55:43.312Z,3.00
2022-09-20T00:56:43.312Z,2.50
2022-09-20T00:57:43.296Z,2.60
2022-09-20T00:58:43.296Z,2.90
2022-09-20T00:59:43.583Z,2.90
2022-09-20T01:00:43.349Z,2.90
2022-09-20T01:01:43.327Z,3.00
2022-09-20T01:02:43.318Z,2.80
2022-09-20T01:03:43.228Z,2.50
2022-09-20T01:04:43.446Z,2.90
2022-09-20T01:05:43.195Z,2.70
2022-09-20T01:06:43.207Z,2.60
2022-09-20T01:07:43.174Z,2.90
2022-09-20T01:08:43.181Z,2.60
2022-09-20T01:09:43.151Z,2.90
2022-09-20T01:10:43.446Z,2.80
2022-09-20T01:11:43.142Z,2.90
2022-09-20T01:12:43.117Z,2.70
2022-09-20T01:13:43.120Z,2.70
2022-09-20T01:14:43.101Z,3.00
2022-09-20T01:15:43.093Z,3.20
2022-09-20T01:16:43.332Z,2.90
2022-09-20T01:17:43.070Z,2.70
2022-09-20T01:18:43.057Z,3.00
2022-09-20T01:19:43.052Z,2.80
2022-09-20T01:20:43.029Z,2.80
2022-09-20T01:21:43.230Z,3.10
2022-09-20T01:22:43.012Z,2.80
2022-09-20T01:23:43.004Z,2.80
2022-09-20T01:24:42.979Z,3.10
2022-09-20T01:25:42.965Z,2.70
2022-09-20T01:26:42.958Z,2.70
2022-09-20T01:27:42.981Z,3.10
2022-09-20T01:28:42.938Z,2.70
2022-09-20T01:29:42.933Z,3.00
2022-09-20T01:30:43.193Z,2.90
2022-09-20T01:31:42.954Z,3.20
2022-09-20T01:32:42.895Z,3.10
2022-09-20T01:33:42.871Z,3.30
2022-09-20T01:34:42.861Z,3.00
2022-09-20T01:35:42.886Z,2.90
2022-09-20T01:36:42.833Z,3.30
2022-09-20T01:37:42.824Z,3.20
2022-09-20T01:38:42.834Z,3.00
2022-09-20T01:39:42.792Z,3.10
2022-09-20T01:40:42.847Z,2.70
2022-09-20T01:41:43.103Z,3.10
2022-09-20T01:42:42.783Z,3.10
2022-09-20T01:43:42.768Z,3.10
2022-09-20T01:44:42.756Z,3.60
2022-09-20T01:45:42.832Z,3.20
2022-09-20T01:46:43.015Z,3.10
2022-09-20T01:47:42.718Z,2.80
2022-09-20T01:48:42.717Z,2.90
2022-09-20T01:49:42.700Z,2.90
2022-09-20T01:50:42.674Z,2.90
2022-09-20T01:51:42.655Z,2.80
2022-09-20T01:52:42.665Z,2.90
2022-09-20T01:53:42.662Z,3.30
2022-09-20T01:54:42.624Z,3.20
2022-09-20T01:55:42.631Z,2.90
2022-09-20T01:56:42.618Z,3.50
2022-09-20T01:57:42.609Z,2.80
2022-09-20T01:58:42.596Z,2.90
2022-09-20T01:59:42.578Z,3.00
2022-09-20T02:00:42.866Z,3.10
2022-09-20T02:01:42.547Z,2.90
2022-09-20T02:02:42.914Z,2.90
2022-09-20T02:03:42.536Z,2.90
2022-09-20T02:04:42.521Z,3.10
2022-09-20T02:05:42.795Z,2.60
2022-09-20T02:06:42.501Z,2.70
2022-09-20T02:07:42.490Z,2.70
2022-09-20T02:08:42.658Z,3.10
2022-09-20T02:09:42.462Z,2.90
2022-09-20T02:10:42.762Z,3.00
2022-09-20T02:11:42.443Z,3.10
2022-09-20T02:12:42.690Z,2.90
2022-09-20T02:13:42.422Z,2.90
2022-09-20T02:14:42.390Z,2.80
2022-09-20T02:15:42.379Z,2.80
2022-09-20T02:16:42.477Z,2.90
2022-09-20T02:17:42.675Z,3.20
2022-09-20T02:18:42.351Z,3.30
2022-09-20T02:19:42.344Z,3.20
2022-09-20T02:20:42.323Z,3.20
2022-09-20T02:21:42.311Z,2.90
2022-09-20T02:22:42.304Z,2.90
2022-09-20T02:23:42.538Z,3.10
2022-09-20T02:24:42.279Z,3.00
2022-09-20T02:25:42.261Z,3.10
2022-09-20T02:26:42.255Z,3.10
2022-09-20T02:27:42.256Z,3.10
2022-09-20T02:28:42.239Z,3.10
2022-09-20T02:29:42.439Z,3.30
2022-09-20T02:30:42.226Z,3.30
2022-09-20T02:31:42.297Z,3.70
2022-09-20T02:32:42.183Z,3.10
2022-09-20T02:33:42.188Z,3.50
2022-09-20T02:34:42.177Z,3.80
2022-09-20T02:35:42.388Z,3.50
2022-09-20T02:36:42.147Z,3.40
2022-09-20T02:37:42.127Z,3.50
2022-09-20T02:38:42.116Z,3.50
2022-09-20T02:39:42.104Z,3.30
2022-09-20T02:40:42.173Z,3.30
2022-09-20T02:41:42.395Z,3.20
2022-09-20T02:42:42.074Z,3.10
2022-09-20T02:43:42.316Z,3.10
2022-09-20T02:44:42.061Z,3.30
2022-09-20T02:45:42.117Z,3.20
2022-09-20T02:46:42.025Z,2.80
2022-09-20T02:47:42.030Z,3.20
2022-09-20T02:48:42.307Z,3.30
2022-09-20T02:49:42.005Z,2.90
2022-09-20T02:50:41.979Z,3.40
2022-09-20T02:51:41.981Z,2.90
2022-09-20T02:52:41.977Z,3.60
2022-09-20T02:53:41.937Z,3.20
2022-09-20T02:54:41.949Z,3.20
2022-09-20T02:55:41.917Z,3.40
2022-09-20T02:56:41.941Z,3.20
2022-09-20T02:57:41.909Z,3.30
2022-09-20T02:58:41.902Z,3.20
2022-09-20T02:59:41.879Z,3.60
2022-09-20T03:00:41.883Z,3.10
2022-09-20T03:01:41.944Z,3.10
2022-09-20T03:02:41.908Z,3.10
2022-09-20T03:03:41.842Z,3.60
2022-09-20T03:04:41.811Z,3.40
2022-09-20T03:05:41.822Z,3.40
2022-09-20T03:06:42.155Z,3.40
2022-09-20T03:07:41.818Z,3.40
2022-09-20T03:08:41.775Z,3.60
2022-09-20T03:09:41.759Z,3.70
2022-09-20T03:10:41.761Z,3.70
2022-09-20T03:11:41.744Z,3.70
2022-09-20T03:12:42.001Z,3.70
2022-09-20T03:13:41.717Z,3.90
2022-09-20T03:14:41.903Z,3.50
2022-09-20T03:15:41.733Z,3.50
2022-09-20T03:16:41.777Z,3.60
2022-09-20T03:17:41.674Z,3.60
2022-09-20T03:18:41.666Z,3.60
2022-09-20T03:19:41.643Z,3.90
2022-09-20T03:20:41.946Z,4.10
2022-09-20T03:21:41.615Z,3.80
2022-09-20T03:22:41.624Z,3.90
2022-09-20T03:23:41.593Z,4.10
2022-09-20T03:24:41.585Z,3.90
2022-09-20T03:25:41.586Z,3.80
2022-09-20T03:26:41.775Z,3.80
2022-09-20T03:27:41.550Z,4.00
2022-09-20T03:28:41.550Z,4.00
2022-09-20T03:29:41.527Z,3.80
2022-09-20T03:30:41.577Z,4.00
2022-09-20T03:31:41.586Z,4.30
2022-09-20T03:32:41.485Z,3.90
2022-09-20T03:33:41.499Z,4.50
2022-09-20T03:34:41.482Z,4.10
2022-09-20T03:35:41.469Z,4.50
2022-09-20T03:36:41.460Z,4.10
2022-09-20T03:37:41.627Z,4.30
2022-09-20T03:38:41.440Z,4.50
2022-09-20T03:39:41.407Z,4.60
2022-09-20T03:40:46.249Z,4.70
2022-09-20T03:41:42.398Z,4.30
2022-09-20T03:42:41.597Z,4.50
2022-09-20T03:43:41.396Z,4.10
2022-09-20T03:44:41.354Z,4.30
2022-09-20T03:45:41.387Z,4.60
2022-09-20T03:46:41.341Z,4.80
2022-09-20T03:47:41.332Z,4.60
2022-09-20T03:48:41.526Z,4.30
2022-09-20T03:49:41.299Z,4.50
2022-09-20T03:50:41.290Z,4.60
2022-09-20T03:51:41.292Z,4.30
2022-09-20T03:52:41.580Z,4.40
2022-09-20T03:53:41.251Z,4.40
2022-09-20T03:54:41.240Z,4.30
2022-09-20T03:55:41.221Z,4.70
2022-09-20T03:56:41.233Z,4.40
2022-09-20T03:57:41.224Z,4.60
2022-09-20T03:58:41.514Z,4.70
2022-09-20T03:59:41.181Z,4.60
2022-09-20T04:00:41.214Z,4.70
2022-09-20T04:01:41.176Z,4.50
2022-09-20T04:02:41.202Z,4.60
2022-09-20T04:03:41.132Z,4.10
2022-09-20T04:04:41.377Z,4.30
2022-09-20T04:05:41.125Z,4.20
2022-09-20T04:06:41.095Z,4.50
2022-09-20T04:07:41.091Z,4.10
2022-09-20T04:08:41.088Z,4.00
2022-09-20T04:09:41.277Z,4.10
2022-09-20T04:10:41.053Z,4.10
2022-09-20T04:11:41.045Z,4.30
2022-09-20T04:12:41.051Z,4.10
2022-09-20T04:13:41.024Z,3.80
2022-09-20T04:14:41.328Z,3.80
2022-09-20T04:15:41.004Z,3.80
2022-09-20T04:16:41.066Z,3.80
2022-09-20T04:17:40.976Z,3.80
2022-09-20T04:18:40.978Z,4.10
2022-09-20T04:19:40.971Z,4.30
2022-09-20T04:20:40.978Z,4.20
2022-09-20T04:21:40.947Z,4.20
2022-09-20T04:22:40.930Z,3.70
2022-09-20T04:23:41.127Z,4.10
2022-09-20T04:24:40.909Z,4.00
2022-09-20T04:25:44.034Z,4.30
2022-09-20T04:26:40.867Z,4.40
2022-09-20T04:27:40.872Z,4.10
2022-09-20T04:28:41.518Z,4.10
2022-09-20T04:29:41.050Z,4.50
2022-09-20T04:30:40.843Z,4.20
2022-09-20T04:31:40.888Z,4.00
2022-09-20T04:32:40.811Z,4.10
2022-09-20T04:33:40.804Z,4.20
2022-09-20T04:34:40.779Z,4.00
2022-09-20T04:35:40.979Z,4.10
2022-09-20T04:36:40.759Z,4.30
2022-09-20T04:37:40.751Z,4.10
2022-09-20T04:38:40.763Z,4.00
2022-09-20T04:39:40.720Z,4.10
2022-09-20T04:40:40.774Z,4.90
2022-09-20T04:42:08.370Z,4.30
2022-09-20T04:42:40.694Z,4.40
2022-09-20T04:43:40.911Z,4.80
2022-09-20T04:44:40.674Z,4.20
2022-09-20T04:45:40.711Z,4.30
2022-09-20T04:46:40.961Z,4.50
2022-09-20T04:47:40.632Z,4.70
2022-09-20T04:48:40.635Z,4.60
2022-09-20T04:49:40.623Z,4.40
2022-09-20T04:50:40.600Z,4.70
2022-09-20T04:51:40.597Z,4.50
2022-09-20T04:52:40.926Z,4.40
2022-09-20T04:53:40.577Z,4.60
2022-09-20T04:54:40.562Z,4.40
2022-09-20T04:55:40.554Z,4.50
2022-09-20T04:56:40.546Z,4.50
2022-09-20T04:57:40.515Z,4.50
2022-09-20T04:58:40.765Z,5.10
2022-09-20T04:59:40.513Z,5.50
2022-09-20T05:00:40.514Z,5.00
2022-09-20T05:01:40.577Z,4.80
2022-09-20T05:02:40.503Z,4.90
2022-09-20T05:03:40.468Z,4.80
2022-09-20T05:04:40.744Z,4.70
2022-09-20T05:05:40.447Z,5.10
2022-09-20T05:06:40.416Z,4.40
2022-09-20T05:07:40.405Z,4.80
2022-09-20T05:08:40.394Z,4.50
2022-09-20T05:09:40.698Z,4.70
2022-09-20T05:10:40.389Z,4.30
2022-09-20T05:11:40.682Z,4.30
2022-09-20T05:12:40.347Z,4.50
2022-09-20T05:13:40.328Z,4.50
2022-09-20T05:14:40.327Z,4.30
2022-09-20T05:15:40.307Z,5.00
2022-09-20T05:16:43.329Z,4.50
2022-09-20T05:17:40.309Z,4.80
2022-09-20T05:18:40.579Z,4.60
2022-09-20T05:19:40.567Z,4.80
2022-09-20T05:20:40.258Z,4.60
2022-09-20T05:21:40.252Z,4.80
2022-09-20T05:22:40.228Z,4.70
2022-09-20T05:23:40.554Z,4.80
2022-09-20T05:24:40.208Z,5.30
2022-09-20T05:25:40.218Z,5.10
2022-09-20T05:26:40.189Z,4.90
2022-09-20T05:27:40.192Z,5.10
2022-09-20T05:28:40.172Z,4.80
2022-09-20T05:29:40.450Z,4.90
2022-09-20T05:30:40.152Z,5.40
2022-09-20T05:31:40.189Z,4.70
2022-09-20T05:32:40.118Z,5.40
2022-09-20T05:33:40.100Z,4.60
2022-09-20T05:34:54.544Z,4.60
2022-09-20T05:35:40.079Z,4.50
2022-09-20T05:36:40.071Z,5.00
2022-09-20T05:37:40.095Z,5.30
2022-09-20T05:38:40.065Z,5.60
2022-09-20T05:39:40.076Z,5.90
2022-09-20T05:40:40.079Z,5.30
2022-09-20T05:41:40.029Z,4.90
2022-09-20T05:42:40.001Z,4.50
2022-09-20T05:43:40.233Z,4.80
2022-09-20T05:44:40.022Z,4.60
2022-09-20T05:45:43.279Z,4.70
2022-09-20T05:46:39.955Z,5.00
2022-09-20T05:47:39.954Z,4.90
2022-09-20T05:48:39.938Z,4.70
2022-09-20T05:49:39.913Z,4.60
2022-09-20T05:50:39.918Z,4.50
2022-09-20T05:51:40.225Z,5.20
2022-09-20T05:52:40.118Z,4.50
2022-09-20T05:53:39.888Z,4.70
2022-09-20T05:54:39.882Z,5.20
2022-09-20T05:55:40.100Z,5.20
2022-09-20T05:56:39.836Z,5.00
2022-09-20T05:57:39.824Z,5.20
2022-09-20T05:58:39.817Z,5.20
2022-09-20T05:59:39.796Z,5.20
2022-09-20T06:00:40.097Z,5.50
2022-09-20T06:01:39.791Z,5.20
2022-09-20T06:02:39.810Z,5.40
2022-09-20T06:03:39.761Z,5.10
2022-09-20T06:04:39.947Z,5.40
2022-09-20T06:05:39.727Z,4.90
2022-09-20T06:06:39.740Z,5.10
2022-09-20T06:07:39.722Z,4.90
2022-09-20T06:08:39.698Z,4.90
2022-09-20T06:09:40.013Z,5.00
2022-09-20T06:10:39.716Z,5.30
2022-09-20T06:11:39.794Z,5.00
2022-09-20T06:12:39.663Z,4.80
2022-09-20T06:13:39.652Z,4.90
2022-09-20T06:14:39.649Z,5.10
2022-09-20T06:15:39.634Z,5.00
2022-09-20T06:16:39.661Z,4.90
2022-09-20T06:17:39.603Z,5.20
2022-09-20T06:18:39.832Z,5.40
2022-09-20T06:19:39.561Z,5.90
2022-09-20T06:20:46.221Z,5.90
2022-09-20T06:21:39.554Z,6.00
2022-09-20T06:22:39.531Z,5.60
2022-09-20T06:23:39.534Z,5.40
2022-09-20T06:24:39.522Z,5.80
2022-09-20T06:25:39.492Z,6.10
2022-09-20T06:26:39.482Z,5.20
2022-09-20T06:27:39.488Z,5.70
2022-09-20T06:28:39.469Z,5.60
2022-09-20T06:29:39.740Z,5.30
2022-09-20T06:30:39.500Z,5.40
2022-09-20T06:31:39.426Z,5.70
2022-09-20T06:32:39.423Z,6.40
2022-09-20T06:33:39.403Z,5.60
2022-09-20T06:34:39.392Z,5.70
2022-09-20T06:35:39.408Z,5.20
2022-09-20T06:36:39.385Z,4.70
2022-09-20T06:37:39.368Z,5.20
2022-09-20T06:38:39.345Z,4.80
2022-09-20T06:39:39.656Z,4.70
2022-09-20T06:40:39.369Z,5.00
2022-09-20T06:41:39.326Z,4.60
2022-09-20T06:42:39.305Z,4.60
2022-09-20T06:43:39.288Z,4.50
2022-09-20T06:44:39.539Z,4.20
2022-09-20T06:45:39.309Z,4.50
2022-09-20T06:46:39.270Z,4.40
2022-09-20T06:47:39.236Z,4.70
2022-09-20T06:48:39.240Z,4.50
2022-09-20T06:49:39.230Z,5.00
2022-09-20T06:50:39.421Z,4.30
2022-09-20T06:51:39.204Z,4.50
2022-09-20T06:52:39.202Z,4.60
2022-09-20T06:53:39.167Z,4.60
2022-09-20T06:54:39.172Z,4.50
2022-09-20T06:55:39.159Z,4.70
2022-09-20T06:56:39.469Z,4.90
2022-09-20T06:57:39.162Z,4.60
2022-09-20T06:58:39.129Z,4.90
2022-09-20T06:59:39.111Z,5.10
2022-09-20T07:00:39.119Z,5.00
2022-09-20T07:01:39.113Z,5.30
2022-09-20T07:02:39.138Z,4.70
2022-09-20T07:04:00.065Z,4.90
2022-09-20T07:04:39.042Z,5.10
2022-09-20T07:05:39.030Z,4.80
2022-09-20T07:06:39.032Z,4.90
2022-09-20T07:07:39.225Z,4.90
2022-09-20T07:08:39.215Z,4.60
2022-09-20T07:09:38.982Z,4.70
2022-09-20T07:10:38.964Z,5.10
2022-09-20T07:11:38.961Z,5.10
2022-09-20T07:13:14.613Z,5.20
2022-09-20T07:13:38.941Z,4.60
2022-09-20T07:14:39.246Z,5.10
2022-09-20T07:15:39.159Z,5.20
2022-09-20T07:16:38.911Z,4.80
2022-09-20T07:17:38.893Z,5.10
2022-09-20T07:18:38.898Z,4.90
2022-09-20T07:19:38.878Z,4.80
2022-09-20T07:20:38.854Z,4.90
2022-09-20T07:21:39.046Z,5.20
2022-09-20T07:22:38.839Z,4.70
2022-09-20T07:23:38.837Z,4.90
2022-09-20T07:24:38.828Z,4.80
2022-09-20T07:25:39.129Z,4.80
2022-09-20T07:26:38.799Z,4.40
2022-09-20T07:27:38.798Z,5.00
2022-09-20T07:28:38.766Z,4.10
2022-09-20T07:29:38.771Z,4.60
2022-09-20T07:30:38.945Z,4.50
2022-09-20T07:31:38.778Z,4.10
2022-09-20T07:32:38.715Z,4.10
2022-09-20T07:33:38.706Z,4.30
2022-09-20T07:34:38.696Z,4.10
2022-09-20T07:36:05.350Z,4.30
2022-09-20T07:36:38.668Z,4.50
2022-09-20T07:37:38.671Z,4.40
2022-09-20T07:38:38.661Z,4.30
2022-09-20T07:39:38.674Z,3.90
2022-09-20T07:40:38.693Z,4.10
2022-09-20T07:41:38.820Z,4.30
2022-09-20T07:42:38.624Z,4.30
2022-09-20T07:43:38.589Z,4.40
2022-09-20T07:44:38.602Z,4.20
2022-09-20T07:45:38.652Z,4.40
2022-09-20T07:46:38.869Z,4.30
2022-09-20T07:47:38.550Z,4.20
2022-09-20T07:48:38.529Z,4.20
2022-09-20T07:49:38.520Z,4.40
2022-09-20T07:50:38.825Z,3.90
2022-09-20T07:51:38.493Z,3.60
2022-09-20T07:52:38.490Z,4.10
2022-09-20T07:53:38.492Z,4.00
2022-09-20T07:54:38.462Z,3.70
2022-09-20T07:55:38.488Z,3.50
2022-09-20T07:56:38.742Z,3.80
2022-09-20T07:57:38.453Z,3.80
2022-09-20T07:58:38.416Z,3.40
2022-09-20T07:59:38.416Z,3.70
2022-09-20T08:00:38.618Z,3.60
2022-09-20T08:01:38.385Z,3.60
2022-09-20T08:02:38.398Z,3.80
2022-09-20T08:03:38.367Z,3.40
2022-09-20T08:04:38.347Z,3.10
2022-09-20T08:05:38.335Z,3.30
2022-09-20T08:06:38.349Z,3.20
2022-09-20T08:07:38.305Z,3.20
2022-09-20T08:08:38.318Z,3.40
2022-09-20T08:09:38.308Z,3.50
2022-09-20T08:10:38.325Z,3.50
2022-09-20T08:11:38.267Z,3.80
2022-09-20T08:14:39.261Z,3.80
2022-09-20T08:15:38.226Z,3.50
2022-09-20T08:16:38.266Z,3.20
2022-09-20T08:17:38.421Z,3.10
2022-09-20T08:18:38.210Z,3.20
2022-09-20T08:19:38.188Z,3.30
2022-09-20T08:20:38.182Z,3.10
2022-09-20T08:21:38.172Z,3.30
2022-09-20T08:22:38.369Z,3.40
2022-09-20T08:23:38.140Z,3.70
2022-09-20T08:24:38.142Z,3.30
2022-09-20T08:25:38.192Z,3.40
2022-09-20T08:26:38.118Z,3.40
2022-09-20T08:27:38.337Z,3.50
2022-09-20T08:28:38.280Z,3.30
2022-09-20T08:29:38.075Z,3.50
2022-09-20T08:30:38.074Z,3.30
2022-09-20T08:31:38.089Z,3.40
2022-09-20T08:32:38.052Z,3.00
2022-09-20T08:33:38.223Z,3.20
2022-09-20T08:34:38.013Z,3.50
2022-09-20T08:35:38.413Z,4.00
2022-09-20T08:36:38.004Z,3.20
2022-09-20T08:37:38.274Z,3.70
2022-09-20T08:40:38.982Z,3.20
2022-09-20T08:41:37.944Z,3.20
2022-09-20T08:42:43.787Z,3.10
2022-09-20T08:43:39.744Z,3.40
2022-09-20T08:44:37.895Z,3.10
2022-09-20T08:45:37.898Z,3.50
2022-09-20T08:46:37.934Z,3.20
2022-09-20T08:47:37.857Z,3.50
2022-09-20T08:48:37.855Z,3.40
2022-09-20T08:49:38.079Z,3.20
2022-09-20T08:50:38.086Z,3.50
2022-09-20T08:51:37.830Z,3.50
2022-09-20T08:52:37.811Z,3.20
2022-09-20T08:53:37.788Z,3.20
2022-09-20T08:54:38.077Z,3.10
2022-09-20T08:55:37.826Z,3.00
2022-09-20T08:56:37.777Z,2.90
2022-09-20T08:57:37.752Z,2.80
2022-09-20T08:58:37.739Z,2.70
2022-09-20T08:59:37.719Z,3.00
2022-09-20T09:00:37.944Z,2.90
2022-09-20T09:01:37.699Z,2.70
2022-09-20T09:02:37.779Z,2.80
2022-09-20T09:03:37.692Z,2.60
2022-09-20T09:04:37.686Z,2.60
2022-09-20T09:05:37.980Z,2.70
2022-09-20T09:06:37.648Z,2.80
2022-09-20T09:07:37.621Z,3.20
2022-09-20T09:08:38.032Z,2.90
2022-09-20T09:09:37.989Z,2.60
2022-09-20T09:10:44.816Z,3.00
2022-09-20T09:11:38.901Z,2.70
2022-09-20T09:12:37.605Z,2.70
2022-09-20T09:13:37.573Z,3.00
2022-09-20T09:14:37.757Z,2.50
2022-09-20T09:15:37.540Z,3.20
2022-09-20T09:16:37.602Z,2.80
2022-09-20T09:17:37.514Z,3.30
2022-09-20T09:18:37.723Z,3.20
2022-09-20T09:19:37.497Z,2.80
2022-09-20T09:20:37.492Z,3.20
2022-09-20T09:21:37.497Z,2.70
2022-09-20T09:22:37.467Z,2.60
2022-09-20T09:23:37.460Z,2.80
2022-09-20T09:24:37.644Z,2.90
2022-09-20T09:25:37.440Z,2.80
2022-09-20T09:26:37.428Z,2.80
2022-09-20T09:27:37.416Z,2.70
2022-09-20T09:28:37.386Z,2.50
2022-09-20T09:29:37.375Z,2.90
2022-09-20T09:30:37.597Z,3.20
2022-09-20T09:31:37.409Z,3.20
2022-09-20T09:32:37.357Z,2.50
2022-09-20T09:33:37.334Z,2.90
2022-09-20T09:34:37.329Z,2.70
2022-09-20T09:35:37.318Z,2.50
2022-09-20T09:36:37.309Z,1.90
2022-09-20T09:37:37.278Z,2.20
2022-09-20T09:38:37.282Z,2.00
2022-09-20T09:39:37.258Z,2.00
2022-09-20T09:40:37.537Z,1.90
2022-09-20T09:41:37.229Z,2.30
2022-09-20T09:42:37.222Z,1.80
2022-09-20T09:43:37.212Z,2.20
2022-09-20T09:44:37.199Z,1.70
2022-09-20T09:45:44.574Z,1.40
2022-09-20T09:46:37.194Z,1.80
2022-09-20T09:47:37.164Z,1.60
2022-09-20T09:48:39.480Z,1.40
2022-09-20T09:49:37.157Z,1.50
2022-09-20T09:50:37.147Z,1.80
2022-09-20T09:51:37.417Z,1.60
2022-09-20T09:52:37.120Z,1.60
2022-09-20T09:53:37.100Z,1.50
2022-09-20T09:54:37.093Z,1.60
2022-09-20T09:55:37.076Z,1.70
2022-09-20T09:56:37.057Z,1.70
2022-09-20T09:57:37.366Z,1.70
2022-09-20T09:58:37.050Z,1.90
2022-09-20T09:59:37.032Z,1.70
2022-09-20T10:00:37.219Z,1.60
2022-09-20T10:01:37.044Z,1.90
2022-09-20T10:02:37.050Z,1.60
2022-09-20T10:03:36.991Z,1.70
2022-09-20T10:04:36.985Z,1.60
2022-09-20T10:05:36.950Z,1.70
2022-09-20T10:06:37.284Z,1.60
2022-09-20T10:07:36.930Z,1.80
2022-09-20T10:08:36.920Z,1.60
2022-09-20T10:09:36.923Z,1.70
2022-09-20T10:10:36.897Z,1.50
2022-09-20T10:11:36.895Z,1.30
2022-09-20T10:12:37.192Z,1.40
2022-09-20T10:13:40.485Z,1.60
2022-09-20T10:14:36.852Z,1.60
2022-09-20T10:15:36.865Z,1.70
2022-09-20T10:16:37.218Z,1.60
2022-09-20T10:17:36.813Z,1.70
2022-09-20T10:18:36.818Z,1.50
2022-09-20T10:19:36.794Z,1.90
2022-09-20T10:20:36.797Z,1.70
2022-09-20T10:21:36.786Z,1.70
2022-09-20T10:22:37.081Z,1.70
2022-09-20T10:24:03.227Z,1.60
2022-09-20T10:24:37.750Z,1.40
2022-09-20T10:25:36.746Z,1.40
2022-09-20T10:26:36.716Z,1.40
2022-09-20T10:27:36.710Z,1.30
2022-09-20T10:28:37.018Z,1.30
2022-09-20T10:29:36.691Z,1.30
2022-09-20T10:30:36.701Z,1.20
2022-09-20T10:31:36.723Z,1.70
2022-09-20T10:32:36.649Z,1.30
2022-09-20T10:33:36.642Z,1.10
2022-09-20T10:34:36.833Z,1.50
2022-09-20T10:35:36.612Z,1.30
2022-09-20T10:36:36.612Z,1.10
2022-09-20T10:37:36.589Z,1.00
2022-09-20T10:38:36.584Z,1.20
2022-09-20T10:39:36.583Z,1.10
2022-09-20T10:40:36.859Z,1.30
2022-09-20T10:41:36.538Z,1.10
2022-09-20T10:42:36.530Z,1.40
2022-09-20T10:43:36.512Z,1.20
2022-09-20T10:44:36.725Z,1.20
2022-09-20T10:46:08.275Z,1.20
2022-09-20T10:46:37.529Z,1.20
2022-09-20T10:47:36.473Z,1.30
2022-09-20T10:48:36.486Z,1.40
2022-09-20T10:49:36.443Z,1.50
2022-09-20T10:50:36.477Z,1.30
2022-09-20T10:51:36.436Z,1.40
2022-09-20T10:52:36.413Z,1.50
2022-09-20T10:53:36.402Z,1.20
2022-09-20T10:54:36.397Z,1.20
2022-09-20T10:55:36.374Z,1.50
2022-09-20T10:56:36.574Z,1.40
2022-09-20T10:57:36.354Z,1.40
2022-09-20T10:58:36.360Z,1.30
2022-09-20T10:59:36.335Z,1.40
2022-09-20T11:00:36.339Z,1.60
2022-09-20T11:01:36.593Z,1.20
2022-09-20T11:02:36.385Z,1.60
2022-09-20T11:03:36.287Z,1.70
2022-09-20T11:04:36.277Z,1.60
2022-09-20T11:05:36.269Z,1.80
2022-09-20T11:06:36.257Z,1.80
2022-09-20T11:07:36.499Z,1.70
2022-09-20T11:08:36.246Z,1.50
2022-09-20T11:09:36.220Z,1.30
2022-09-20T11:10:36.209Z,1.20
2022-09-20T11:11:36.199Z,1.20
2022-09-20T11:12:36.198Z,1.30
2022-09-20T11:13:36.192Z,1.20
2022-09-20T11:14:36.168Z,1.10
2022-09-20T11:15:36.150Z,1.30
2022-09-20T11:16:36.226Z,1.30
2022-09-20T11:17:36.432Z,1.40
2022-09-20T11:18:36.111Z,1.30
2022-09-20T11:19:36.115Z,1.30
2022-09-20T11:20:36.093Z,1.10
2022-09-20T11:21:36.082Z,1.20
2022-09-20T11:22:36.445Z,1.10
2022-09-20T11:23:36.074Z,1.20
2022-09-20T11:24:36.043Z,1.00
2022-09-20T11:25:36.047Z,1.10
2022-09-20T11:26:36.022Z,1.30
2022-09-20T11:27:36.023Z,1.30
2022-09-20T11:28:36.028Z,1.40
2022-09-20T11:29:36.007Z,1.30
2022-09-20T11:30:35.988Z,1.10
2022-09-20T11:31:36.341Z,1.20
2022-09-20T11:32:35.955Z,1.20
2022-09-20T11:33:41.196Z,1.20
2022-09-20T11:34:36.925Z,1.40
2022-09-20T11:35:35.946Z,1.30
2022-09-20T11:36:35.906Z,1.30
2022-09-20T11:37:35.920Z,1.20
2022-09-20T11:38:35.917Z,1.00
2022-09-20T11:39:36.186Z,1.30
2022-09-20T11:40:35.896Z,1.20
2022-09-20T11:41:35.871Z,1.10
2022-09-20T11:42:36.169Z,1.00
2022-09-20T11:43:35.828Z,1.30
2022-09-20T11:44:35.828Z,1.00
2022-09-20T11:45:35.863Z,1.10
2022-09-20T11:46:35.801Z,1.10
2022-09-20T11:47:55.028Z,1.00
2022-09-20T11:48:36.789Z,1.30
2022-09-20T11:49:35.770Z,1.00
2022-09-20T11:50:35.754Z,1.00
2022-09-20T11:51:35.739Z,1.10
2022-09-20T11:52:35.721Z,1.10
2022-09-20T11:53:36.926Z,1.00
2022-09-20T11:54:36.025Z,1.20
2022-09-20T11:55:35.703Z,1.20
2022-09-20T11:56:35.693Z,1.20
2022-09-20T11:57:35.664Z,1.00
2022-09-20T11:58:35.686Z,1.10
2022-09-20T11:59:35.657Z,1.40
2022-09-20T12:00:35.854Z,1.10
2022-09-20T12:01:35.933Z,0.80
2022-09-20T12:02:35.799Z,1.10
2022-09-20T12:03:35.669Z,1.00
2022-09-20T12:04:36.071Z,1.00
2022-09-20T12:05:35.588Z,1.00
2022-09-20T12:06:35.556Z,0.90
2022-09-20T12:07:35.805Z,1.10
2022-09-20T12:08:35.548Z,1.20
2022-09-20T12:09:35.541Z,1.30
2022-09-20T12:10:35.524Z,1.60
2022-09-20T12:11:35.536Z,1.30
2022-09-20T12:12:35.811Z,1.00
2022-09-20T12:13:35.490Z,1.00
2022-09-20T12:14:35.481Z,1.00
2022-09-20T12:15:35.457Z,1.20
2022-09-20T12:16:35.490Z,1.10
2022-09-20T12:17:35.454Z,1.20
2022-09-20T12:18:35.586Z,1.20
2022-09-20T12:19:35.422Z,1.20
2022-09-20T12:20:35.414Z,1.10
2022-09-20T12:21:35.411Z,1.00
2022-09-20T12:22:35.370Z,1.10
2022-09-20T12:23:35.504Z,1.10
2022-09-20T12:24:35.350Z,1.10
2022-09-20T12:25:35.353Z,1.20
2022-09-20T12:26:35.343Z,1.00
2022-09-20T12:27:35.311Z,1.20
2022-09-20T12:28:35.316Z,1.00
2022-09-20T12:29:35.520Z,1.10
2022-09-20T12:30:35.293Z,1.00
2022-09-20T12:31:35.343Z,1.10
2022-09-20T12:32:35.276Z,1.00
2022-09-20T12:33:35.248Z,1.00
2022-09-20T12:34:35.450Z,1.00
2022-09-20T12:35:35.244Z,0.90
2022-09-20T12:36:35.221Z,1.00
2022-09-20T12:37:35.218Z,1.10
2022-09-20T12:38:35.200Z,1.00
2022-09-20T12:39:35.196Z,0.90
2022-09-20T12:40:35.194Z,1.00
2022-09-20T12:41:35.167Z,1.00
2022-09-20T12:42:35.136Z,0.90
2022-09-20T12:43:35.127Z,1.10
2022-09-20T12:44:35.468Z,0.90
2022-09-20T12:45:35.163Z,0.90
2022-09-20T12:46:35.095Z,1.20
2022-09-20T12:47:35.201Z,1.00
2022-09-20T12:48:35.081Z,1.00
2022-09-20T12:49:35.351Z,1.10
2022-09-20T12:50:35.038Z,0.90
2022-09-20T12:51:35.053Z,1.10
2022-09-20T12:52:35.035Z,0.90
2022-09-20T12:53:35.023Z,1.00
2022-09-20T12:54:35.013Z,1.00
2022-09-20T12:55:35.023Z,1.20
2022-09-20T12:56:34.971Z,1.30
2022-09-20T12:57:34.969Z,1.30
2022-09-20T12:58:34.969Z,1.10
2022-09-20T12:59:34.942Z,1.10
2022-09-20T13:00:34.972Z,1.20
2022-09-20T13:01:35.229Z,1.30
2022-09-20T13:02:34.903Z,1.20
2022-09-20T13:03:34.917Z,1.10
2022-09-20T13:04:34.883Z,1.10
2022-09-20T13:05:34.872Z,1.10
2022-09-20T13:06:34.863Z,0.90
2022-09-20T13:07:36.427Z,1.10
2022-09-20T13:08:34.847Z,1.20
2022-09-20T13:09:34.824Z,1.00
2022-09-20T13:10:34.815Z,1.10
2022-09-20T13:11:34.805Z,1.20
2022-09-20T13:12:34.785Z,1.20
2022-09-20T13:13:35.025Z,1.10
2022-09-20T13:14:34.779Z,1.20
2022-09-20T13:15:34.756Z,1.30
2022-09-20T13:16:34.798Z,1.30
2022-09-20T13:17:34.749Z,1.40
2022-09-20T13:18:35.026Z,1.50
2022-09-20T13:19:34.707Z,1.20
2022-09-20T13:20:34.712Z,1.20
2022-09-20T13:21:34.692Z,1.10
2022-09-20T13:22:34.693Z,1.30